^^
Meteo Knjazevac Station Historical Data
Daily Summary for January 18, 2022 Units:  English    Metric   Both
Daily Weekly Monthly Yearly Custom
  High: Low: Average:
Temperature: 40.6 °F 26.4 °F 34 °F
Dew Point: 36.6 °F 22.2 °F 27.2 °F
Humidity: 93% 64% 76%
Wind Speed: 12mph 0mph 4.4mph
Wind Gust: 21mph - -
Wind- - WSW
Pressure: 30.50 in 30.18 in -
Precipitation: 0.01 in    
Historical Graphs
 
 
Tabular Data for January 18, 2022
Time Temperature Dew Point Pressure Wind Wind Speed Wind Gust Humidity Rainfall Rate (Hourly) solar Conditions
00:00 38.5 °F 36.6 °F 30.18 in WSW 3 mph 7 mph 93% 0.00 in 0 W/m2
00:10 38.5 °F 36.6 °F 30.19 in WSW 3 mph 7 mph 93% 0.00 in 0 W/m2
00:20 38.7 °F 36.3 °F 30.20 in WNW 2 mph 7 mph 91% 0.00 in 0 W/m2
00:30 38.7 °F 36.3 °F 30.19 in WNW 2 mph 5 mph 91% 0.00 in 0 W/m2
00:40 38.7 °F 36 °F 30.20 in West 6 mph 9 mph 90% 0.00 in 0 W/m2
00:50 38.4 °F 35.2 °F 30.23 in North 12 mph 18 mph 88% 0.01 in 0 W/m2
01:00 37.4 °F 33.3 °F 30.24 in NNW 5 mph 20 mph 85% 0.00 in 0 W/m2
01:10 37 °F 31.1 °F 30.25 in North 6 mph 19 mph 79% 0.00 in 0 W/m2
01:20 36.7 °F 29.8 °F 30.26 in NNW 3 mph 15 mph 76% 0.00 in 0 W/m2
01:30 36.3 °F 29.2 °F 30.26 in NNW 5 mph 13 mph 75% 0.00 in 0 W/m2
01:40 36 °F 28.8 °F 30.27 in NW 3 mph 7 mph 75% 0.00 in 0 W/m2
01:50 35.8 °F 28.3 °F 30.27 in NW 5 mph 11 mph 74% 0.00 in 0 W/m2
02:00 35.5 °F 28.1 °F 30.27 in NW 2 mph 11 mph 74% 0.00 in 0 W/m2
02:10 35.2 °F 27.8 °F 30.28 in WNW 3 mph 7 mph 74% 0.00 in 0 W/m2
02:20 35.1 °F 27.9 °F 30.28 in NW 3 mph 8 mph 75% 0.00 in 0 W/m2
02:30 34.9 °F 27.8 °F 30.29 in WNW 5 mph 8 mph 75% 0.00 in 0 W/m2
02:40 34.7 °F 27.3 °F 30.29 in NW 6 mph 12 mph 74% 0.00 in 0 W/m2
02:50 35.1 °F 27.3 °F 30.29 in NNW 6 mph 12 mph 73% 0.00 in 0 W/m2
03:00 34.9 °F 27.1 °F 30.29 in NNW 5 mph 9 mph 73% 0.00 in 0 W/m2
03:10 34.7 °F 26.9 °F 30.29 in NNW 5 mph 10 mph 73% 0.00 in 0 W/m2
03:20 34.5 °F 26.4 °F 30.29 in NW 5 mph 9 mph 72% 0.00 in 0 W/m2
03:30 34.7 °F 26.6 °F 30.30 in NW 3 mph 13 mph 72% 0.00 in 0 W/m2
03:40 34.3 °F 26.8 °F 30.30 in West 1 mph 9 mph 74% 0.00 in 0 W/m2
03:50 33.4 °F 26.9 °F 30.31 in WSW 2 mph 3 mph 77% 0.00 in 0 W/m2
04:00 32.5 °F 26.4 °F 30.31 in WNW 2 mph 5 mph 78% 0.00 in 0 W/m2
04:10 32.1 °F 26.3 °F 30.31 in West 3 mph 5 mph 79% 0.00 in 0 W/m2
04:20 31.8 °F 26 °F 30.31 in West 2 mph 6 mph 79% 0.00 in 0 W/m2
04:30 31.4 °F 26.2 °F 30.31 in Calm   4 mph 81% 0.00 in 0 W/m2
04:40 31 °F 25.9 °F 30.32 in WSW 1 mph 3 mph 81% 0.00 in 0 W/m2
04:50 30.7 °F 26.2 °F 30.33 in WSW 2 mph 5 mph 83% 0.00 in 0 W/m2
05:00 30.6 °F 26 °F 30.33 in WNW 2 mph 4 mph 83% 0.00 in 0 W/m2
05:10 30.4 °F 25.8 °F 30.34 in Calm   2 mph 83% 0.00 in 0 W/m2
05:20 30.1 °F 25.9 °F 30.34 in WSW 1 mph 2 mph 84% 0.00 in 0 W/m2
05:30 29.8 °F 25.6 °F 30.34 in South 2 mph 5 mph 84% 0.00 in 0 W/m2
05:40 30 °F 26.1 °F 30.34 in SW 1 mph 6 mph 85% 0.00 in 0 W/m2
05:50 30 °F 26.1 °F 30.34 in West 3 mph 5 mph 85% 0.00 in 0 W/m2
06:00 30.2 °F 26.2 °F 30.35 in West 2 mph 6 mph 85% 0.00 in 0 W/m2
06:10 30.4 °F 26.4 °F 30.35 in West 1 mph 6 mph 85% 0.00 in 0 W/m2
06:20 30.7 °F 26.8 °F 30.36 in Calm   4 mph 85% 0.00 in 0 W/m2
06:30 30.6 °F 26.6 °F 30.36 in West 5 mph 6 mph 85% 0.00 in 0 W/m2
06:40 30.4 °F 26.1 °F 30.36 in WSW 6 mph 9 mph 84% 0.00 in 0 W/m2
06:50 30.5 °F 26.2 °F 30.36 in WSW 7 mph 10 mph 84% 0.00 in 0 W/m2
07:00 30.7 °F 26.5 °F 30.36 in WSW 7 mph 12 mph 84% 0.00 in 4 W/m2
07:10 31.1 °F 26.8 °F 30.37 in WSW 7 mph 12 mph 84% 0.00 in 9 W/m2
07:20 31.3 °F 27 °F 30.37 in WSW 6 mph 11 mph 84% 0.00 in 13 W/m2
07:30 31.4 °F 26.8 °F 30.38 in WSW 7 mph 10 mph 83% 0.00 in 28 W/m2
07:40 31.5 °F 26.9 °F 30.38 in WSW 5 mph 8 mph 83% 0.00 in 47 W/m2
07:50 31.7 °F 27.1 °F 30.39 in WSW 6 mph 10 mph 83% 0.00 in 66 W/m2
08:00 32.4 °F 27.8 °F 30.39 in WSW 5 mph 9 mph 83% 0.00 in 56 W/m2
08:10 32.5 °F 27.4 °F 30.39 in WSW 7 mph 13 mph 81% 0.00 in 52 W/m2
08:20 32.9 °F 27.7 °F 30.39 in WSW 7 mph 10 mph 81% 0.00 in 64 W/m2
08:30 33.4 °F 28.2 °F 30.40 in WSW 5 mph 11 mph 81% 0.00 in 147 W/m2
08:40 34.3 °F 28.8 °F 30.40 in WSW 5 mph 13 mph 80% 0.00 in 167 W/m2
08:50 34.9 °F 28.7 °F 30.40 in WSW 6 mph 13 mph 78% 0.00 in 187 W/m2
09:00 35.3 °F 29.1 °F 30.40 in SW 7 mph 13 mph 78% 0.00 in 207 W/m2
09:10 36 °F 29.1 °F 30.40 in WSW 6 mph 13 mph 76% 0.00 in 226 W/m2
09:20 36.5 °F 29.7 °F 30.41 in SW 3 mph 9 mph 76% 0.00 in 220 W/m2
09:30 37 °F 29.5 °F 30.40 in SW 12 mph 15 mph 74% 0.00 in 261 W/m2
09:40 36.9 °F 29.1 °F 30.41 in WSW 7 mph 14 mph 73% 0.00 in 277 W/m2
09:50 37 °F 29.5 °F 30.41 in SW 3 mph 12 mph 74% 0.00 in 293 W/m2
10:00 37.4 °F 29.5 °F 30.42 in SW 7 mph 10 mph 73% 0.00 in 158 W/m2
10:10 36.9 °F 29 °F 30.42 in WSW 10 mph 18 mph 73% 0.00 in 135 W/m2
10:20 36.5 °F 28.3 °F 30.42 in WSW 6 mph 17 mph 72% 0.00 in 149 W/m2
10:30 36.3 °F 28.2 °F 30.42 in WSW 10 mph 17 mph 72% 0.00 in 127 W/m2
10:40 36.1 °F 28 °F 30.41 in WSW 12 mph 18 mph 72% 0.00 in 109 W/m2
10:50 36 °F 28.1 °F 30.42 in WSW 6 mph 16 mph 73% 0.00 in 84 W/m2
11:00 36 °F 28.1 °F 30.42 in WSW 6 mph 12 mph 73% 0.00 in 103 W/m2
11:10 36.2 °F 28.4 °F 30.42 in WSW 9 mph 16 mph 73% 0.00 in 369 W/m2
11:20 37.2 °F 29 °F 30.42 in West 9 mph 17 mph 72% 0.00 in 210 W/m2
11:30 37.9 °F 28.9 °F 30.42 in WSW 9 mph 17 mph 70% 0.00 in 375 W/m2
11:40 38.5 °F 29.9 °F 30.41 in West 8 mph 16 mph 71% 0.00 in 375 W/m2
11:50 39 °F 29.3 °F 30.41 in WSW 10 mph 18 mph 68% 0.00 in 374 W/m2
12:00 39.1 °F 29.4 °F 30.41 in WSW 7 mph 14 mph 68% 0.00 in 372 W/m2
12:10 39.7 °F 30 °F 30.41 in WSW 9 mph 14 mph 68% 0.00 in 368 W/m2
12:20 40.1 °F 30 °F 30.41 in WSW 7 mph 21 mph 67% 0.00 in 362 W/m2
12:30 40.6 °F 30.2 °F 30.41 in WSW 7 mph 16 mph 66% 0.00 in 356 W/m2
12:40 40.6 °F 29.8 °F 30.41 in WSW 6 mph 16 mph 65% 0.00 in 157 W/m2
12:50 39.7 °F 28.9 °F 30.41 in WSW 7 mph 14 mph 65% 0.00 in 126 W/m2
13:00 39 °F 29 °F 30.41 in WSW 5 mph 13 mph 67% 0.00 in 146 W/m2
13:10 39 °F 29 °F 30.42 in West 8 mph 16 mph 67% 0.00 in 103 W/m2
13:20 39 °F 29.3 °F 30.42 in WSW 7 mph 17 mph 68% 0.00 in 302 W/m2
13:30 39.1 °F 28.3 °F 30.41 in WSW 7 mph 13 mph 65% 0.00 in 150 W/m2
13:40 38.9 °F 27.8 °F 30.41 in WSW 9 mph 16 mph 64% 0.00 in 107 W/m2
13:50 38.3 °F 27.6 °F 30.41 in WSW 8 mph 16 mph 65% 0.00 in 79 W/m2
14:00 37.9 °F 27.2 °F 30.42 in WSW 8 mph 17 mph 65% 0.00 in 93 W/m2
14:10 37.8 °F 27 °F 30.42 in WSW 8 mph 17 mph 65% 0.00 in 89 W/m2
14:20 37.6 °F 26.9 °F 30.42 in West 6 mph 17 mph 65% 0.00 in 96 W/m2
14:30 37.4 °F 27.1 °F 30.42 in WSW 9 mph 16 mph 66% 0.00 in 91 W/m2
14:40 37.6 °F 27.6 °F 30.42 in WSW 8 mph 12 mph 67% 0.00 in 160 W/m2
14:50 37.8 °F 27.5 °F 30.43 in WSW 9 mph 17 mph 66% 0.00 in 140 W/m2
15:00 37.3 °F 27.3 °F 30.43 in WSW 9 mph 17 mph 67% 0.00 in 62 W/m2
15:10 36.9 °F 27.3 °F 30.43 in WSW 6 mph 14 mph 68% 0.00 in 73 W/m2
15:20 36.9 °F 27.3 °F 30.43 in West 5 mph 17 mph 68% 0.00 in 78 W/m2
15:30 36.5 °F 26.9 °F 30.44 in West 8 mph 18 mph 68% 0.00 in 39 W/m2
15:40 36.1 °F 26.9 °F 30.44 in WNW 5 mph 14 mph 69% 0.00 in 40 W/m2
15:50 36.1 °F 26.9 °F 30.44 in West 6 mph 15 mph 69% 0.00 in 23 W/m2
16:00 36.3 °F 27.1 °F 30.44 in WNW 5 mph 10 mph 69% 0.00 in 8 W/m2
16:10 35.9 °F 26.7 °F 30.44 in WNW 8 mph 16 mph 69% 0.00 in 13 W/m2
16:20 35.5 °F 26.7 °F 30.45 in WNW 2 mph 10 mph 70% 0.00 in 7 W/m2
16:30 35.1 °F 26.3 °F 30.45 in WSW 2 mph 8 mph 70% 0.00 in 0 W/m2
16:40 34.9 °F 26.8 °F 30.45 in Calm   5 mph 72% 0.00 in 0 W/m2
16:50 34.6 °F 26.5 °F 30.45 in West 2 mph 6 mph 72% 0.00 in 0 W/m2
17:00 34.3 °F 26.2 °F 30.46 in West 2 mph 7 mph 72% 0.00 in 0 W/m2
17:10 34.2 °F 26.1 °F 30.46 in North 1 mph 3 mph 72% 0.00 in 0 W/m2
17:20 33.8 °F 26.1 °F 30.46 in West 2 mph 4 mph 73% 0.00 in 0 W/m2
17:30 33.3 °F 25.9 °F 30.46 in West 5 mph 8 mph 74% 0.00 in 0 W/m2
17:40 33.1 °F 26 °F 30.46 in South 5 mph 6 mph 75% 0.00 in 0 W/m2
17:50 33.1 °F 26 °F 30.47 in ESE 5 mph 10 mph 75% 0.00 in 0 W/m2
18:30 32.7 °F 25.7 °F 30.47 in SW 2 mph 4 mph 75% 0.00 in 0 W/m2
18:40 32.5 °F 25.5 °F 30.47 in West 2 mph 9 mph 75% 0.00 in 0 W/m2
18:50 32.4 °F 26 °F 30.47 in Calm   6 mph 77% 0.00 in 0 W/m2
19:00 32.2 °F 25.8 °F 30.48 in NNW 1 mph 5 mph 77% 0.00 in 0 W/m2
19:10 32 °F 25.6 °F 30.48 in West 1 mph 9 mph 77% 0.00 in 0 W/m2
19:20 31.8 °F 25.7 °F 30.48 in WNW 1 mph 3 mph 78% 0.00 in 0 W/m2
19:30 31.5 °F 25.4 °F 30.48 in West 2 mph 5 mph 78% 0.00 in 0 W/m2
19:40 31.1 °F 25.3 °F 30.49 in West 3 mph 6 mph 79% 0.00 in 0 W/m2
19:50 30.9 °F 25.2 °F 30.49 in West 3 mph 6 mph 79% 0.00 in 0 W/m2
20:00 31.1 °F 25.3 °F 30.48 in West 5 mph 9 mph 79% 0.00 in 0 W/m2
20:10 31.1 °F 25.3 °F 30.48 in WNW 2 mph 6 mph 79% 0.00 in 0 W/m2
20:20 30.9 °F 25.2 °F 30.48 in NW 1 mph 3 mph 79% 0.00 in 0 W/m2
20:30 30.7 °F 25 °F 30.48 in WNW 1 mph 5 mph 79% 0.00 in 0 W/m2
20:40 30.7 °F 25 °F 30.49 in West 1 mph 5 mph 79% 0.00 in 0 W/m2
20:50 30.7 °F 25 °F 30.49 in NNE 1 mph 3 mph 79% 0.00 in 0 W/m2
21:00 30.6 °F 24.8 °F 30.50 in SE 1 mph 3 mph 79% 0.00 in 0 W/m2
21:10 30.1 °F 24.4 °F 30.50 in West 2 mph 4 mph 79% 0.00 in 0 W/m2
21:20 30 °F 24.6 °F 30.49 in WNW 3 mph 6 mph 80% 0.00 in 0 W/m2
21:30 30.2 °F 24.5 °F 30.49 in NW 1 mph 6 mph 79% 0.00 in 0 W/m2
21:40 30.2 °F 24.5 °F 30.49 in North 1 mph 6 mph 79% 0.00 in 0 W/m2
21:50 29.7 °F 23.9 °F 30.50 in North 5 mph 8 mph 79% 0.00 in 0 W/m2
22:00 29.8 °F 24.1 °F 30.50 in NNW 1 mph 7 mph 79% 0.00 in 0 W/m2
22:10 29.3 °F 23.9 °F 30.50 in SSE 1 mph 5 mph 80% 0.00 in 0 W/m2
22:20 28.9 °F 23.5 °F 30.50 in NNE 1 mph 4 mph 80% 0.00 in 0 W/m2
22:30 28.8 °F 23.4 °F 30.50 in North 1 mph 4 mph 80% 0.00 in 0 W/m2
22:40 28.5 °F 23.1 °F 30.50 in North 1 mph 4 mph 80% 0.00 in 0 W/m2
22:50 28.2 °F 23.1 °F 30.50 in NE 2 mph 5 mph 81% 0.00 in 0 W/m2
23:00 27.7 °F 22.6 °F 30.50 in North 2 mph 4 mph 81% 0.00 in 0 W/m2
23:10 27.3 °F 22.5 °F 30.50 in NW 2 mph 4 mph 82% 0.00 in 0 W/m2
23:20 27.1 °F 22.7 °F 30.50 in North 2 mph 6 mph 83% 0.00 in 0 W/m2
23:30 26.8 °F 22.6 °F 30.50 in Calm   3 mph 84% 0.00 in 0 W/m2
23:40 26.7 °F 22.5 °F 30.50 in Calm   5 mph 84% 0.00 in 0 W/m2
23:50 26.4 °F 22.2 °F 30.49 in East 1 mph 2 mph 84% 0.00 in 0 W/m2
Knjazevac, Serbia
Compliments of Weather Underground - 2 mb